sensor_id;sensor_type;location;lat;lon;timestamp;temperature;humidity
22360;DHT22;11347;52.030;4.690;2022-07-17T00:01:50;22.10;42.50
22360;DHT22;11347;52.030;4.690;2022-07-17T00:04:16;22.00;42.40
22360;DHT22;11347;52.030;4.690;2022-07-17T00:06:41;22.10;42.70
22360;DHT22;11347;52.030;4.690;2022-07-17T00:09:10;22.00;42.50
22360;DHT22;11347;52.030;4.690;2022-07-17T00:11:39;22.00;42.50
22360;DHT22;11347;52.030;4.690;2022-07-17T00:14:04;22.00;42.60
22360;DHT22;11347;52.030;4.690;2022-07-17T00:16:30;22.00;42.60
22360;DHT22;11347;52.030;4.690;2022-07-17T00:18:58;22.00;42.70
22360;DHT22;11347;52.030;4.690;2022-07-17T00:21:24;21.90;42.50
22360;DHT22;11347;52.030;4.690;2022-07-17T00:23:51;22.00;42.80
22360;DHT22;11347;52.030;4.690;2022-07-17T00:26:18;21.90;42.70
22360;DHT22;11347;52.030;4.690;2022-07-17T00:28:44;22.00;42.80
22360;DHT22;11347;52.030;4.690;2022-07-17T00:31:10;21.90;42.80
22360;DHT22;11347;52.030;4.690;2022-07-17T00:33:35;21.90;43.00
22360;DHT22;11347;52.030;4.690;2022-07-17T00:36:01;21.90;43.00
22360;DHT22;11347;52.030;4.690;2022-07-17T00:38:27;21.90;43.00
22360;DHT22;11347;52.030;4.690;2022-07-17T00:40:56;21.90;43.00
22360;DHT22;11347;52.030;4.690;2022-07-17T00:43:23;21.90;43.00
22360;DHT22;11347;52.030;4.690;2022-07-17T00:45:59;21.90;43.10
22360;DHT22;11347;52.030;4.690;2022-07-17T00:48:25;21.90;43.10
22360;DHT22;11347;52.030;4.690;2022-07-17T00:50:54;21.90;43.10
22360;DHT22;11347;52.030;4.690;2022-07-17T00:53:20;21.90;43.10
22360;DHT22;11347;52.030;4.690;2022-07-17T00:55:47;21.80;43.00
22360;DHT22;11347;52.030;4.690;2022-07-17T00:58:26;21.80;43.10
22360;DHT22;11347;52.030;4.690;2022-07-17T01:00:55;21.90;43.30
22360;DHT22;11347;52.030;4.690;2022-07-17T01:03:26;21.80;43.10
22360;DHT22;11347;52.030;4.690;2022-07-17T01:05:52;21.80;43.20
22360;DHT22;11347;52.030;4.690;2022-07-17T01:08:18;21.80;43.30
22360;DHT22;11347;52.030;4.690;2022-07-17T01:10:43;21.80;43.40
22360;DHT22;11347;52.030;4.690;2022-07-17T01:13:09;21.70;43.30
22360;DHT22;11347;52.030;4.690;2022-07-17T01:15:40;21.80;43.40
22360;DHT22;11347;52.030;4.690;2022-07-17T01:18:07;21.70;43.30
22360;DHT22;11347;52.030;4.690;2022-07-17T01:20:33;21.70;43.30
22360;DHT22;11347;52.030;4.690;2022-07-17T01:22:59;21.70;43.40
22360;DHT22;11347;52.030;4.690;2022-07-17T01:25:24;21.70;43.50
22360;DHT22;11347;52.030;4.690;2022-07-17T01:27:50;21.70;43.60
22360;DHT22;11347;52.030;4.690;2022-07-17T01:30:16;21.70;43.70
22360;DHT22;11347;52.030;4.690;2022-07-17T01:32:43;21.70;43.80
22360;DHT22;11347;52.030;4.690;2022-07-17T01:35:10;21.70;43.90
22360;DHT22;11347;52.030;4.690;2022-07-17T01:37:36;21.70;44.00
22360;DHT22;11347;52.030;4.690;2022-07-17T01:40:02;21.70;44.30
22360;DHT22;11347;52.030;4.690;2022-07-17T01:42:31;21.70;44.50
22360;DHT22;11347;52.030;4.690;2022-07-17T01:44:58;21.70;44.50
22360;DHT22;11347;52.030;4.690;2022-07-17T01:47:24;21.60;44.30
22360;DHT22;11347;52.030;4.690;2022-07-17T01:49:51;21.70;44.50
22360;DHT22;11347;52.030;4.690;2022-07-17T01:52:17;21.70;44.50
22360;DHT22;11347;52.030;4.690;2022-07-17T01:54:43;21.60;44.40
22360;DHT22;11347;52.030;4.690;2022-07-17T01:57:10;21.60;44.30
22360;DHT22;11347;52.030;4.690;2022-07-17T01:59:36;21.60;44.30
22360;DHT22;11347;52.030;4.690;2022-07-17T02:02:02;21.60;44.40
22360;DHT22;11347;52.030;4.690;2022-07-17T02:04:32;21.60;44.30
22360;DHT22;11347;52.030;4.690;2022-07-17T02:06:58;21.60;44.30
22360;DHT22;11347;52.030;4.690;2022-07-17T02:09:23;21.60;44.30
22360;DHT22;11347;52.030;4.690;2022-07-17T02:11:49;21.60;44.60
22360;DHT22;11347;52.030;4.690;2022-07-17T02:14:15;21.60;44.60
22360;DHT22;11347;52.030;4.690;2022-07-17T02:16:40;21.60;44.60
22360;DHT22;11347;52.030;4.690;2022-07-17T02:19:06;21.60;44.80
22360;DHT22;11347;52.030;4.690;2022-07-17T02:21:31;21.60;44.90
22360;DHT22;11347;52.030;4.690;2022-07-17T02:23:57;21.50;44.90
22360;DHT22;11347;52.030;4.690;2022-07-17T02:26:23;21.50;45.00
22360;DHT22;11347;52.030;4.690;2022-07-17T02:28:48;21.60;45.20
22360;DHT22;11347;52.030;4.690;2022-07-17T02:31:14;21.50;45.10
22360;DHT22;11347;52.030;4.690;2022-07-17T02:33:40;21.50;45.00
22360;DHT22;11347;52.030;4.690;2022-07-17T02:36:05;21.50;44.90
22360;DHT22;11347;52.030;4.690;2022-07-17T02:38:34;21.50;44.80
22360;DHT22;11347;52.030;4.690;2022-07-17T02:41:00;21.50;45.50
22360;DHT22;11347;52.030;4.690;2022-07-17T02:43:25;21.50;44.70
22360;DHT22;11347;52.030;4.690;2022-07-17T02:45:51;21.50;44.80
22360;DHT22;11347;52.030;4.690;2022-07-17T02:48:16;21.50;44.90
22360;DHT22;11347;52.030;4.690;2022-07-17T02:50:42;21.40;44.80
22360;DHT22;11347;52.030;4.690;2022-07-17T02:53:08;21.40;44.80
22360;DHT22;11347;52.030;4.690;2022-07-17T02:55:33;21.40;44.90
22360;DHT22;11347;52.030;4.690;2022-07-17T02:57:59;21.40;45.60
22360;DHT22;11347;52.030;4.690;2022-07-17T03:00:24;21.40;45.00
22360;DHT22;11347;52.030;4.690;2022-07-17T03:02:52;21.40;45.00
22360;DHT22;11347;52.030;4.690;2022-07-17T03:05:18;21.40;45.10
22360;DHT22;11347;52.030;4.690;2022-07-17T03:07:44;21.40;45.00
22360;DHT22;11347;52.030;4.690;2022-07-17T03:10:10;21.40;45.00
22360;DHT22;11347;52.030;4.690;2022-07-17T03:12:36;21.40;45.00
22360;DHT22;11347;52.030;4.690;2022-07-17T03:15:03;21.40;45.00
22360;DHT22;11347;52.030;4.690;2022-07-17T03:17:29;21.40;45.10
22360;DHT22;11347;52.030;4.690;2022-07-17T03:19:55;21.40;45.00
22360;DHT22;11347;52.030;4.690;2022-07-17T03:22:20;21.40;45.10
22360;DHT22;11347;52.030;4.690;2022-07-17T03:24:46;21.30;45.10
22360;DHT22;11347;52.030;4.690;2022-07-17T03:27:11;21.30;45.20
22360;DHT22;11347;52.030;4.690;2022-07-17T03:29:37;21.50;45.50
22360;DHT22;11347;52.030;4.690;2022-07-17T03:32:02;21.40;45.50
22360;DHT22;11347;52.030;4.690;2022-07-17T03:34:28;21.30;45.40
22360;DHT22;11347;52.030;4.690;2022-07-17T03:36:54;21.30;45.40
22360;DHT22;11347;52.030;4.690;2022-07-17T03:39:19;21.30;46.20
22360;DHT22;11347;52.030;4.690;2022-07-17T03:41:45;21.30;45.50
22360;DHT22;11347;52.030;4.690;2022-07-17T03:44:10;21.20;45.50
22360;DHT22;11347;52.030;4.690;2022-07-17T03:46:36;21.30;45.60
22360;DHT22;11347;52.030;4.690;2022-07-17T03:49:05;21.20;45.60
22360;DHT22;11347;52.030;4.690;2022-07-17T03:51:31;21.30;45.70
22360;DHT22;11347;52.030;4.690;2022-07-17T03:53:56;21.30;45.80
22360;DHT22;11347;52.030;4.690;2022-07-17T03:56:22;21.20;45.70
22360;DHT22;11347;52.030;4.690;2022-07-17T03:58:48;21.20;45.70
22360;DHT22;11347;52.030;4.690;2022-07-17T04:01:13;21.20;45.70
22360;DHT22;11347;52.030;4.690;2022-07-17T04:03:39;21.30;45.90
22360;DHT22;11347;52.030;4.690;2022-07-17T04:06:05;21.10;45.70
22360;DHT22;11347;52.030;4.690;2022-07-17T04:08:31;21.20;45.70
22360;DHT22;11347;52.030;4.690;2022-07-17T04:10:57;21.20;45.90
22360;DHT22;11347;52.030;4.690;2022-07-17T04:13:23;21.20;46.00
22360;DHT22;11347;52.030;4.690;2022-07-17T04:15:48;21.20;46.00
22360;DHT22;11347;52.030;4.690;2022-07-17T04:18:34;21.20;46.00
22360;DHT22;11347;52.030;4.690;2022-07-17T04:21:05;21.20;45.90
22360;DHT22;11347;52.030;4.690;2022-07-17T04:23:31;21.20;45.90
22360;DHT22;11347;52.030;4.690;2022-07-17T04:25:57;21.20;45.80
22360;DHT22;11347;52.030;4.690;2022-07-17T04:28:23;21.20;45.80
22360;DHT22;11347;52.030;4.690;2022-07-17T04:30:48;21.20;45.70
22360;DHT22;11347;52.030;4.690;2022-07-17T04:33:14;21.30;45.90
22360;DHT22;11347;52.030;4.690;2022-07-17T04:35:40;21.10;45.60
22360;DHT22;11347;52.030;4.690;2022-07-17T04:38:06;21.20;45.60
22360;DHT22;11347;52.030;4.690;2022-07-17T04:40:34;21.30;45.30
22360;DHT22;11347;52.030;4.690;2022-07-17T04:42:59;21.30;45.20
22360;DHT22;11347;52.030;4.690;2022-07-17T04:45:25;21.30;45.00
22360;DHT22;11347;52.030;4.690;2022-07-17T04:47:54;21.30;44.90
22360;DHT22;11347;52.030;4.690;2022-07-17T04:50:19;21.40;44.90
22360;DHT22;11347;52.030;4.690;2022-07-17T04:52:46;21.40;44.80
22360;DHT22;11347;52.030;4.690;2022-07-17T04:55:14;21.40;44.70
22360;DHT22;11347;52.030;4.690;2022-07-17T04:57:40;21.40;44.70
22360;DHT22;11347;52.030;4.690;2022-07-17T05:00:07;21.30;44.60
22360;DHT22;11347;52.030;4.690;2022-07-17T05:02:33;21.40;44.70
22360;DHT22;11347;52.030;4.690;2022-07-17T05:04:59;21.40;44.50
22360;DHT22;11347;52.030;4.690;2022-07-17T05:07:24;21.40;44.50
22360;DHT22;11347;52.030;4.690;2022-07-17T05:09:50;21.40;44.40
22360;DHT22;11347;52.030;4.690;2022-07-17T05:12:16;21.40;44.20
22360;DHT22;11347;52.030;4.690;2022-07-17T05:14:42;21.40;44.10
22360;DHT22;11347;52.030;4.690;2022-07-17T05:17:10;21.50;44.40
22360;DHT22;11347;52.030;4.690;2022-07-17T05:19:38;21.40;44.30
22360;DHT22;11347;52.030;4.690;2022-07-17T05:22:04;21.40;44.30
22360;DHT22;11347;52.030;4.690;2022-07-17T05:24:30;21.40;44.20
22360;DHT22;11347;52.030;4.690;2022-07-17T05:26:56;21.40;44.10
22360;DHT22;11347;52.030;4.690;2022-07-17T05:29:22;21.50;44.20
22360;DHT22;11347;52.030;4.690;2022-07-17T05:31:51;21.40;44.10
22360;DHT22;11347;52.030;4.690;2022-07-17T05:34:16;21.40;44.10
22360;DHT22;11347;52.030;4.690;2022-07-17T05:36:42;21.40;44.10
22360;DHT22;11347;52.030;4.690;2022-07-17T05:39:07;21.40;44.10
22360;DHT22;11347;52.030;4.690;2022-07-17T05:41:34;21.40;44.10
22360;DHT22;11347;52.030;4.690;2022-07-17T05:43:59;21.40;44.60
22360;DHT22;11347;52.030;4.690;2022-07-17T05:46:25;21.40;44.40
22360;DHT22;11347;52.030;4.690;2022-07-17T05:48:51;21.40;43.60
22360;DHT22;11347;52.030;4.690;2022-07-17T05:51:16;21.50;43.60
22360;DHT22;11347;52.030;4.690;2022-07-17T05:53:42;21.50;43.60
22360;DHT22;11347;52.030;4.690;2022-07-17T05:56:07;21.50;43.40
22360;DHT22;11347;52.030;4.690;2022-07-17T05:58:33;21.50;43.40
22360;DHT22;11347;52.030;4.690;2022-07-17T06:00:58;21.50;43.10
22360;DHT22;11347;52.030;4.690;2022-07-17T06:03:24;21.50;43.60
22360;DHT22;11347;52.030;4.690;2022-07-17T06:05:50;21.50;42.70
22360;DHT22;11347;52.030;4.690;2022-07-17T06:08:15;21.50;42.60
22360;DHT22;11347;52.030;4.690;2022-07-17T06:10:41;21.50;42.40
22360;DHT22;11347;52.030;4.690;2022-07-17T06:13:07;21.60;42.40
22360;DHT22;11347;52.030;4.690;2022-07-17T06:15:32;21.60;42.10
22360;DHT22;11347;52.030;4.690;2022-07-17T06:18:02;21.60;41.90
22360;DHT22;11347;52.030;4.690;2022-07-17T06:20:28;21.60;41.80
22360;DHT22;11347;52.030;4.690;2022-07-17T06:22:54;21.70;41.70
22360;DHT22;11347;52.030;4.690;2022-07-17T06:25:19;21.70;41.70
22360;DHT22;11347;52.030;4.690;2022-07-17T06:27:45;21.60;41.40
22360;DHT22;11347;52.030;4.690;2022-07-17T06:30:13;21.70;41.30
22360;DHT22;11347;52.030;4.690;2022-07-17T06:32:41;21.70;41.30
22360;DHT22;11347;52.030;4.690;2022-07-17T06:35:08;21.70;41.30
22360;DHT22;11347;52.030;4.690;2022-07-17T06:37:34;21.70;40.90
22360;DHT22;11347;52.030;4.690;2022-07-17T06:40:00;21.70;40.70
22360;DHT22;11347;52.030;4.690;2022-07-17T06:42:26;21.70;40.60
22360;DHT22;11347;52.030;4.690;2022-07-17T06:44:51;21.70;40.50
22360;DHT22;11347;52.030;4.690;2022-07-17T06:47:20;21.80;40.50
22360;DHT22;11347;52.030;4.690;2022-07-17T06:49:45;21.80;40.40
22360;DHT22;11347;52.030;4.690;2022-07-17T06:52:11;21.70;40.40
22360;DHT22;11347;52.030;4.690;2022-07-17T06:54:36;21.80;40.40
22360;DHT22;11347;52.030;4.690;2022-07-17T06:57:02;21.80;40.50
22360;DHT22;11347;52.030;4.690;2022-07-17T06:59:28;21.80;40.40
22360;DHT22;11347;52.030;4.690;2022-07-17T07:01:53;21.80;40.30
22360;DHT22;11347;52.030;4.690;2022-07-17T07:04:19;21.90;40.30
22360;DHT22;11347;52.030;4.690;2022-07-17T07:06:44;21.90;40.30
22360;DHT22;11347;52.030;4.690;2022-07-17T07:09:10;21.90;40.30
22360;DHT22;11347;52.030;4.690;2022-07-17T07:11:37;21.90;40.30
22360;DHT22;11347;52.030;4.690;2022-07-17T07:14:03;21.90;40.40
22360;DHT22;11347;52.030;4.690;2022-07-17T07:16:28;22.00;40.40
22360;DHT22;11347;52.030;4.690;2022-07-17T07:18:55;22.00;40.40
22360;DHT22;11347;52.030;4.690;2022-07-17T07:21:21;22.10;40.50
22360;DHT22;11347;52.030;4.690;2022-07-17T07:23:48;22.00;40.30
22360;DHT22;11347;52.030;4.690;2022-07-17T07:26:13;22.20;40.30
22360;DHT22;11347;52.030;4.690;2022-07-17T07:28:39;22.10;40.10
22360;DHT22;11347;52.030;4.690;2022-07-17T07:31:08;22.20;40.00
22360;DHT22;11347;52.030;4.690;2022-07-17T07:33:36;22.20;40.10
22360;DHT22;11347;52.030;4.690;2022-07-17T07:36:01;22.20;40.20
22360;DHT22;11347;52.030;4.690;2022-07-17T07:38:27;22.20;40.10
22360;DHT22;11347;52.030;4.690;2022-07-17T07:40:55;22.20;40.00
22360;DHT22;11347;52.030;4.690;2022-07-17T07:43:21;22.20;39.80
22360;DHT22;11347;52.030;4.690;2022-07-17T07:45:47;22.20;39.60
22360;DHT22;11347;52.030;4.690;2022-07-17T07:48:12;22.20;39.40
22360;DHT22;11347;52.030;4.690;2022-07-17T07:50:38;22.20;39.80
22360;DHT22;11347;52.030;4.690;2022-07-17T07:53:07;22.20;39.60
22360;DHT22;11347;52.030;4.690;2022-07-17T07:55:32;22.20;39.50
22360;DHT22;11347;52.030;4.690;2022-07-17T07:58:06;22.30;40.20
22360;DHT22;11347;52.030;4.690;2022-07-17T08:00:36;22.30;40.50
22360;DHT22;11347;52.030;4.690;2022-07-17T08:03:03;22.30;40.40
22360;DHT22;11347;52.030;4.690;2022-07-17T08:05:29;22.30;40.20
22360;DHT22;11347;52.030;4.690;2022-07-17T08:07:57;22.30;40.20
22360;DHT22;11347;52.030;4.690;2022-07-17T08:10:26;22.30;40.10
22360;DHT22;11347;52.030;4.690;2022-07-17T08:12:52;22.30;39.90
22360;DHT22;11347;52.030;4.690;2022-07-17T08:15:20;22.30;39.50
22360;DHT22;11347;52.030;4.690;2022-07-17T08:17:46;22.40;39.50
22360;DHT22;11347;52.030;4.690;2022-07-17T08:20:13;22.40;39.50
22360;DHT22;11347;52.030;4.690;2022-07-17T08:22:39;22.40;39.50
22360;DHT22;11347;52.030;4.690;2022-07-17T08:25:05;22.40;39.50
22360;DHT22;11347;52.030;4.690;2022-07-17T08:27:43;22.40;39.50
22360;DHT22;11347;52.030;4.690;2022-07-17T08:30:13;22.40;39.50
22360;DHT22;11347;52.030;4.690;2022-07-17T08:32:39;22.50;39.60
22360;DHT22;11347;52.030;4.690;2022-07-17T08:35:07;22.50;39.60
22360;DHT22;11347;52.030;4.690;2022-07-17T08:37:43;22.50;39.60
22360;DHT22;11347;52.030;4.690;2022-07-17T08:40:15;22.50;39.60
22360;DHT22;11347;52.030;4.690;2022-07-17T08:42:44;22.50;39.60
22360;DHT22;11347;52.030;4.690;2022-07-17T08:45:11;22.50;39.60
22360;DHT22;11347;52.030;4.690;2022-07-17T08:47:40;22.50;39.60
22360;DHT22;11347;52.030;4.690;2022-07-17T08:50:08;22.50;39.60
22360;DHT22;11347;52.030;4.690;2022-07-17T08:52:39;22.50;40.30
22360;DHT22;11347;52.030;4.690;2022-07-17T08:55:08;22.50;39.60
22360;DHT22;11347;52.030;4.690;2022-07-17T08:57:37;22.60;39.70
22360;DHT22;11347;52.030;4.690;2022-07-17T09:00:04;22.60;39.70
22360;DHT22;11347;52.030;4.690;2022-07-17T09:02:30;22.60;39.70
22360;DHT22;11347;52.030;4.690;2022-07-17T09:04:56;22.60;39.10
22360;DHT22;11347;52.030;4.690;2022-07-17T09:07:21;22.60;39.20
22360;DHT22;11347;52.030;4.690;2022-07-17T09:09:51;22.60;39.30
22360;DHT22;11347;52.030;4.690;2022-07-17T09:12:16;22.60;39.20
22360;DHT22;11347;52.030;4.690;2022-07-17T09:14:42;22.60;38.80
22360;DHT22;11347;52.030;4.690;2022-07-17T09:17:11;22.60;38.70
22360;DHT22;11347;52.030;4.690;2022-07-17T09:19:40;22.70;38.70
22360;DHT22;11347;52.030;4.690;2022-07-17T09:22:15;22.70;38.50
22360;DHT22;11347;52.030;4.690;2022-07-17T09:24:49;22.70;39.40
22360;DHT22;11347;52.030;4.690;2022-07-17T09:27:28;22.70;38.60
22360;DHT22;11347;52.030;4.690;2022-07-17T09:30:08;22.70;38.70
22360;DHT22;11347;52.030;4.690;2022-07-17T09:32:41;22.70;38.50
22360;DHT22;11347;52.030;4.690;2022-07-17T09:35:09;22.80;38.40
22360;DHT22;11347;52.030;4.690;2022-07-17T09:37:44;22.80;38.30
22360;DHT22;11347;52.030;4.690;2022-07-17T09:40:14;22.80;38.00
22360;DHT22;11347;52.030;4.690;2022-07-17T09:43:02;22.80;38.00
22360;DHT22;11347;52.030;4.690;2022-07-17T09:45:28;22.80;37.90
22360;DHT22;11347;52.030;4.690;2022-07-17T09:47:56;22.80;37.80
22360;DHT22;11347;52.030;4.690;2022-07-17T09:50:23;22.80;37.80
22360;DHT22;11347;52.030;4.690;2022-07-17T09:52:52;22.80;38.50
22360;DHT22;11347;52.030;4.690;2022-07-17T09:55:19;23.00;37.70
22360;DHT22;11347;52.030;4.690;2022-07-17T09:57:47;22.90;37.40
22360;DHT22;11347;52.030;4.690;2022-07-17T10:00:14;22.90;37.20
22360;DHT22;11347;52.030;4.690;2022-07-17T10:02:41;22.90;36.80
22360;DHT22;11347;52.030;4.690;2022-07-17T10:05:09;22.90;37.00
22360;DHT22;11347;52.030;4.690;2022-07-17T10:07:40;23.00;36.60
22360;DHT22;11347;52.030;4.690;2022-07-17T10:10:08;23.00;36.80
22360;DHT22;11347;52.030;4.690;2022-07-17T10:12:38;23.00;36.60
22360;DHT22;11347;52.030;4.690;2022-07-17T10:15:04;23.10;37.10
22360;DHT22;11347;52.030;4.690;2022-07-17T10:17:30;23.10;37.20
22360;DHT22;11347;52.030;4.690;2022-07-17T10:19:56;23.00;37.10
22360;DHT22;11347;52.030;4.690;2022-07-17T10:22:24;23.10;37.00
22360;DHT22;11347;52.030;4.690;2022-07-17T10:24:55;23.10;36.90
22360;DHT22;11347;52.030;4.690;2022-07-17T10:29:58;23.20;36.90
22360;DHT22;11347;52.030;4.690;2022-07-17T10:32:24;23.20;36.90
22360;DHT22;11347;52.030;4.690;2022-07-17T10:35:01;23.20;37.00
22360;DHT22;11347;52.030;4.690;2022-07-17T10:40:24;23.20;37.30
22360;DHT22;11347;52.030;4.690;2022-07-17T10:43:04;23.30;37.20
22360;DHT22;11347;52.030;4.690;2022-07-17T10:45:37;23.30;37.10
22360;DHT22;11347;52.030;4.690;2022-07-17T10:56:15;23.30;36.80
22360;DHT22;11347;52.030;4.690;2022-07-17T10:58:42;23.40;36.70
22360;DHT22;11347;52.030;4.690;2022-07-17T11:01:16;23.40;36.90
22360;DHT22;11347;52.030;4.690;2022-07-17T11:03:48;23.40;36.80
22360;DHT22;11347;52.030;4.690;2022-07-17T11:11:11;23.50;36.40
22360;DHT22;11347;52.030;4.690;2022-07-17T11:13:37;23.50;35.50
22360;DHT22;11347;52.030;4.690;2022-07-17T11:16:03;23.50;35.40
22360;DHT22;11347;52.030;4.690;2022-07-17T11:18:29;23.50;35.60
22360;DHT22;11347;52.030;4.690;2022-07-17T11:21:00;23.50;35.60
22360;DHT22;11347;52.030;4.690;2022-07-17T11:23:27;23.60;35.60
22360;DHT22;11347;52.030;4.690;2022-07-17T11:26:04;23.60;35.90
22360;DHT22;11347;52.030;4.690;2022-07-17T11:28:42;23.60;36.10
22360;DHT22;11347;52.030;4.690;2022-07-17T11:31:24;23.60;36.10
22360;DHT22;11347;52.030;4.690;2022-07-17T11:33:54;23.60;36.00
22360;DHT22;11347;52.030;4.690;2022-07-17T11:36:35;23.60;36.20
22360;DHT22;11347;52.030;4.690;2022-07-17T11:39:06;23.50;35.90
22360;DHT22;11347;52.030;4.690;2022-07-17T11:44:02;23.70;36.00
22360;DHT22;11347;52.030;4.690;2022-07-17T11:46:33;23.70;36.30
22360;DHT22;11347;52.030;4.690;2022-07-17T11:48:59;23.70;36.00
22360;DHT22;11347;52.030;4.690;2022-07-17T11:51:44;23.70;36.10
22360;DHT22;11347;52.030;4.690;2022-07-17T11:54:12;23.70;36.20
22360;DHT22;11347;52.030;4.690;2022-07-17T11:56:39;23.70;36.30
22360;DHT22;11347;52.030;4.690;2022-07-17T11:59:05;23.80;36.50
22360;DHT22;11347;52.030;4.690;2022-07-17T12:01:39;23.80;36.60
22360;DHT22;11347;52.030;4.690;2022-07-17T12:04:11;23.90;36.70
22360;DHT22;11347;52.030;4.690;2022-07-17T12:06:37;23.80;36.60
22360;DHT22;11347;52.030;4.690;2022-07-17T12:09:04;23.80;36.30
22360;DHT22;11347;52.030;4.690;2022-07-17T12:11:30;23.80;36.40
22360;DHT22;11347;52.030;4.690;2022-07-17T12:14:03;23.90;36.70
22360;DHT22;11347;52.030;4.690;2022-07-17T12:16:31;23.90;36.60
22360;DHT22;11347;52.030;4.690;2022-07-17T12:24:39;23.90;36.50
22360;DHT22;11347;52.030;4.690;2022-07-17T12:27:14;24.00;36.60
22360;DHT22;11347;52.030;4.690;2022-07-17T12:29:48;24.00;36.70
22360;DHT22;11347;52.030;4.690;2022-07-17T12:32:17;24.00;36.60
22360;DHT22;11347;52.030;4.690;2022-07-17T12:34:46;24.10;36.60
22360;DHT22;11347;52.030;4.690;2022-07-17T12:37:17;24.00;36.50
22360;DHT22;11347;52.030;4.690;2022-07-17T12:39:46;24.10;36.60
22360;DHT22;11347;52.030;4.690;2022-07-17T12:42:13;24.10;36.20
22360;DHT22;11347;52.030;4.690;2022-07-17T12:44:38;24.10;36.20
22360;DHT22;11347;52.030;4.690;2022-07-17T12:47:04;24.10;36.30
22360;DHT22;11347;52.030;4.690;2022-07-17T12:49:30;24.20;36.50
22360;DHT22;11347;52.030;4.690;2022-07-17T12:51:56;24.20;36.50
22360;DHT22;11347;52.030;4.690;2022-07-17T12:54:22;24.10;37.00
22360;DHT22;11347;52.030;4.690;2022-07-17T12:56:48;24.20;36.40
22360;DHT22;11347;52.030;4.690;2022-07-17T12:59:17;24.20;36.40
22360;DHT22;11347;52.030;4.690;2022-07-17T13:01:42;24.20;36.20
22360;DHT22;11347;52.030;4.690;2022-07-17T13:04:08;24.20;36.10
22360;DHT22;11347;52.030;4.690;2022-07-17T13:06:34;24.30;36.10
22360;DHT22;11347;52.030;4.690;2022-07-17T13:09:00;24.30;36.10
22360;DHT22;11347;52.030;4.690;2022-07-17T13:11:26;24.20;35.80
22360;DHT22;11347;52.030;4.690;2022-07-17T13:13:55;24.30;35.80
22360;DHT22;11347;52.030;4.690;2022-07-17T13:16:21;24.30;35.80
22360;DHT22;11347;52.030;4.690;2022-07-17T13:18:46;24.30;35.70
22360;DHT22;11347;52.030;4.690;2022-07-17T13:21:12;24.30;35.70
22360;DHT22;11347;52.030;4.690;2022-07-17T13:23:38;24.30;35.70
22360;DHT22;11347;52.030;4.690;2022-07-17T13:26:04;24.30;35.80
22360;DHT22;11347;52.030;4.690;2022-07-17T13:28:30;24.30;35.70
22360;DHT22;11347;52.030;4.690;2022-07-17T13:30:56;24.40;35.80
22360;DHT22;11347;52.030;4.690;2022-07-17T13:33:22;24.40;35.80
22360;DHT22;11347;52.030;4.690;2022-07-17T13:35:47;24.40;35.80
22360;DHT22;11347;52.030;4.690;2022-07-17T13:38:13;24.40;35.60
22360;DHT22;11347;52.030;4.690;2022-07-17T13:40:39;24.40;35.70
22360;DHT22;11347;52.030;4.690;2022-07-17T13:43:04;24.40;35.50
22360;DHT22;11347;52.030;4.690;2022-07-17T13:45:30;24.50;35.60
22360;DHT22;11347;52.030;4.690;2022-07-17T13:47:57;24.40;35.60
22360;DHT22;11347;52.030;4.690;2022-07-17T13:50:23;24.50;35.70
22360;DHT22;11347;52.030;4.690;2022-07-17T13:52:49;24.40;35.60
22360;DHT22;11347;52.030;4.690;2022-07-17T13:55:15;24.40;35.80
22360;DHT22;11347;52.030;4.690;2022-07-17T13:57:41;24.50;35.90
22360;DHT22;11347;52.030;4.690;2022-07-17T14:00:07;24.50;35.90
22360;DHT22;11347;52.030;4.690;2022-07-17T14:02:37;24.50;35.80
22360;DHT22;11347;52.030;4.690;2022-07-17T14:05:04;24.50;35.70
22360;DHT22;11347;52.030;4.690;2022-07-17T14:07:31;24.50;35.60
22360;DHT22;11347;52.030;4.690;2022-07-17T14:09:56;24.50;35.80
22360;DHT22;11347;52.030;4.690;2022-07-17T14:12:22;24.50;35.90
22360;DHT22;11347;52.030;4.690;2022-07-17T14:14:47;24.60;36.00
22360;DHT22;11347;52.030;4.690;2022-07-17T14:17:13;24.60;36.00
22360;DHT22;11347;52.030;4.690;2022-07-17T14:19:39;24.60;35.80
22360;DHT22;11347;52.030;4.690;2022-07-17T14:22:05;24.60;35.80
22360;DHT22;11347;52.030;4.690;2022-07-17T14:24:30;24.60;35.70
22360;DHT22;11347;52.030;4.690;2022-07-17T14:26:56;24.60;35.60
22360;DHT22;11347;52.030;4.690;2022-07-17T14:29:22;24.60;35.60
22360;DHT22;11347;52.030;4.690;2022-07-17T14:31:47;24.70;35.60
22360;DHT22;11347;52.030;4.690;2022-07-17T14:34:13;24.60;35.60
22360;DHT22;11347;52.030;4.690;2022-07-17T14:36:43;24.60;35.50
22360;DHT22;11347;52.030;4.690;2022-07-17T14:39:08;24.60;35.40
22360;DHT22;11347;52.030;4.690;2022-07-17T14:41:34;24.60;35.40
22360;DHT22;11347;52.030;4.690;2022-07-17T14:44:00;24.60;35.30
22360;DHT22;11347;52.030;4.690;2022-07-17T14:46:26;24.70;35.40
22360;DHT22;11347;52.030;4.690;2022-07-17T14:48:51;24.70;35.40
22360;DHT22;11347;52.030;4.690;2022-07-17T14:51:17;24.80;35.50
22360;DHT22;11347;52.030;4.690;2022-07-17T14:53:43;24.70;35.40
22360;DHT22;11347;52.030;4.690;2022-07-17T14:56:09;24.80;35.40
22360;DHT22;11347;52.030;4.690;2022-07-17T14:58:34;24.70;35.30
22360;DHT22;11347;52.030;4.690;2022-07-17T15:01:00;24.70;35.30
22360;DHT22;11347;52.030;4.690;2022-07-17T15:03:26;24.70;35.30
22360;DHT22;11347;52.030;4.690;2022-07-17T15:05:52;24.70;35.30
22360;DHT22;11347;52.030;4.690;2022-07-17T15:08:17;24.70;35.30
22360;DHT22;11347;52.030;4.690;2022-07-17T15:10:43;24.70;35.30
22360;DHT22;11347;52.030;4.690;2022-07-17T15:13:08;24.70;35.20
22360;DHT22;11347;52.030;4.690;2022-07-17T15:15:34;24.70;35.20
22360;DHT22;11347;52.030;4.690;2022-07-17T15:18:00;24.70;35.20
22360;DHT22;11347;52.030;4.690;2022-07-17T15:20:25;24.70;35.00
22360;DHT22;11347;52.030;4.690;2022-07-17T15:22:51;24.80;35.10
22360;DHT22;11347;52.030;4.690;2022-07-17T15:25:19;24.70;35.00
22360;DHT22;11347;52.030;4.690;2022-07-17T15:27:46;24.80;35.10
22360;DHT22;11347;52.030;4.690;2022-07-17T15:30:12;24.80;35.20
22360;DHT22;11347;52.030;4.690;2022-07-17T15:32:37;24.80;35.10
22360;DHT22;11347;52.030;4.690;2022-07-17T15:35:04;24.80;35.10
22360;DHT22;11347;52.030;4.690;2022-07-17T15:37:30;24.80;35.00
22360;DHT22;11347;52.030;4.690;2022-07-17T15:39:56;24.80;35.00
22360;DHT22;11347;52.030;4.690;2022-07-17T15:42:22;24.80;34.90
22360;DHT22;11347;52.030;4.690;2022-07-17T15:44:47;24.90;35.10
22360;DHT22;11347;52.030;4.690;2022-07-17T15:47:13;24.80;35.00
22360;DHT22;11347;52.030;4.690;2022-07-17T15:49:38;24.90;35.20
22360;DHT22;11347;52.030;4.690;2022-07-17T15:52:04;24.90;35.10
22360;DHT22;11347;52.030;4.690;2022-07-17T15:54:33;24.80;35.00
22360;DHT22;11347;52.030;4.690;2022-07-17T15:56:58;24.80;35.00